createdAt,value
2023-01-17T00:00:23.105Z,30.30
2023-01-17T00:02:25.337Z,27.48
2023-01-17T00:04:48.803Z,29.13
2023-01-17T00:07:09.657Z,36.00
2023-01-17T00:09:30.856Z,26.30
2023-01-17T00:11:32.893Z,27.50
2023-01-17T00:13:34.929Z,25.20
2023-01-17T00:15:40.015Z,27.98
2023-01-17T00:17:42.224Z,26.15
2023-01-17T00:20:02.717Z,27.30
2023-01-17T00:22:41.738Z,25.27
2023-01-17T00:25:03.997Z,21.83
2023-01-17T00:27:15.027Z,24.73
2023-01-17T00:29:17.046Z,25.83
2023-01-17T00:31:19.102Z,26.55
2023-01-17T00:33:22.111Z,26.67
2023-01-17T00:35:25.137Z,26.92
2023-01-17T00:37:27.088Z,26.17
2023-01-17T00:39:29.113Z,26.92
2023-01-17T00:41:31.098Z,27.25
2023-01-17T00:43:51.510Z,29.17
2023-01-17T00:46:12.390Z,27.65
2023-01-17T00:48:33.133Z,27.10
2023-01-17T00:50:55.924Z,28.40
2023-01-17T00:53:16.592Z,31.27
2023-01-17T00:55:37.261Z,29.10
2023-01-17T00:57:57.951Z,24.55
2023-01-17T01:00:18.812Z,26.98
2023-01-17T01:02:39.601Z,25.42
2023-01-17T01:05:00.558Z,26.63
2023-01-17T01:07:21.269Z,25.25
2023-01-17T01:09:42.099Z,27.80
2023-01-17T01:12:02.917Z,25.40
2023-01-17T01:14:24.580Z,23.17
2023-01-17T01:16:45.342Z,29.70
2023-01-17T01:19:05.872Z,27.20
2023-01-17T01:21:26.488Z,27.40
2023-01-17T01:23:47.177Z,26.65
2023-01-17T01:26:07.940Z,27.15
2023-01-17T01:28:31.093Z,31.02
2023-01-17T01:33:12.147Z,30.85
2023-01-17T01:35:14.281Z,29.58
2023-01-17T01:37:16.304Z,30.27
2023-01-17T01:39:18.440Z,29.50
2023-01-17T01:41:20.677Z,29.77
2023-01-17T01:43:50.513Z,28.33
2023-01-17T01:45:55.660Z,30.05
2023-01-17T01:48:06.182Z,27.95
2023-01-17T01:50:10.700Z,30.63
2023-01-17T01:52:12.828Z,30.63
2023-01-17T01:54:22.636Z,33.05
2023-01-17T01:56:24.717Z,30.55
2023-01-17T01:58:28.676Z,29.48
2023-01-17T02:00:34.818Z,29.88
2023-01-17T02:02:36.885Z,30.30
2023-01-17T02:04:39.013Z,32.15
2023-01-17T02:06:50.346Z,27.25
2023-01-17T02:08:52.374Z,30.27
2023-01-17T02:10:54.541Z,30.27
2023-01-17T02:12:56.553Z,28.95
2023-01-17T02:14:59.105Z,31.42
2023-01-17T02:17:06.706Z,29.60
2023-01-17T02:19:30.944Z,29.90
2023-01-17T02:21:38.920Z,30.52
2023-01-17T02:24:05.863Z,29.05
2023-01-17T02:26:44.803Z,36.85
2023-01-17T02:29:24.280Z,30.08
2023-01-17T02:31:32.518Z,31.13
2023-01-17T02:34:01.391Z,29.70
2023-01-17T02:36:25.605Z,32.30
2023-01-17T02:38:50.005Z,31.08
2023-01-17T02:41:11.942Z,32.28
2023-01-17T02:43:16.362Z,30.75
2023-01-17T02:45:19.529Z,28.33
2023-01-17T02:47:27.414Z,34.35
2023-01-17T02:49:30.453Z,29.58
2023-01-17T02:51:56.365Z,31.25
2023-01-17T02:54:28.432Z,31.73
2023-01-17T02:56:54.605Z,35.45
2023-01-17T02:59:16.765Z,32.30
2023-01-17T03:01:39.008Z,32.35
2023-01-17T03:04:21.739Z,31.70
2023-01-17T03:06:50.034Z,32.08
2023-01-17T03:08:52.135Z,32.35
2023-01-17T03:10:54.290Z,32.85
2023-01-17T03:12:59.115Z,28.40
2023-01-17T03:15:01.220Z,33.40
2023-01-17T03:17:03.381Z,36.97
2023-01-17T03:19:05.485Z,31.52
2023-01-17T03:21:07.598Z,31.83
2023-01-17T03:23:09.693Z,28.88
2023-01-17T03:25:11.762Z,36.05
2023-01-17T03:27:13.848Z,30.25
2023-01-17T03:29:16.707Z,31.65
2023-01-17T03:31:20.105Z,31.30
2023-01-17T03:33:22.252Z,34.13
2023-01-17T03:35:24.270Z,34.65
2023-01-17T03:37:26.432Z,35.25
2023-01-17T03:39:28.449Z,32.72
2023-01-17T03:41:30.483Z,32.15
2023-01-17T03:43:32.535Z,31.42
2023-01-17T03:45:35.119Z,38.30
2023-01-17T03:47:37.198Z,32.60
2023-01-17T03:49:39.980Z,34.15
2023-01-17T03:51:42.139Z,32.65
2023-01-17T03:53:46.908Z,29.60
2023-01-17T03:55:49.007Z,32.55
2023-01-17T03:57:51.171Z,28.90
2023-01-17T03:59:53.203Z,32.60
2023-01-17T04:01:55.283Z,32.55
2023-01-17T04:03:57.381Z,31.20
2023-01-17T04:05:59.435Z,30.60
2023-01-17T04:08:01.474Z,31.20
2023-01-17T04:10:03.925Z,32.95
2023-01-17T04:12:06.120Z,30.23
2023-01-17T04:14:08.144Z,33.15
2023-01-17T04:16:13.465Z,30.42
2023-01-17T04:18:17.016Z,37.75
2023-01-17T04:20:37.525Z,37.08
2023-01-17T04:22:39.639Z,31.92
2023-01-17T04:24:41.716Z,36.42
2023-01-17T04:26:43.745Z,39.25
2023-01-17T04:28:45.820Z,36.42
2023-01-17T04:30:47.929Z,41.10
2023-01-17T04:32:50.273Z,39.60
2023-01-17T04:34:52.429Z,40.50
2023-01-17T04:36:54.571Z,42.47
2023-01-17T04:38:56.571Z,40.70
2023-01-17T04:40:58.703Z,37.17
2023-01-17T04:43:00.820Z,46.20
2023-01-17T04:45:03.162Z,45.78
2023-01-17T04:47:05.384Z,47.08
2023-01-17T04:49:07.440Z,45.90
2023-01-17T04:51:09.527Z,49.35
2023-01-17T04:53:11.581Z,41.90
2023-01-17T04:55:13.665Z,47.72
2023-01-17T04:57:19.145Z,45.45
2023-01-17T04:59:21.670Z,45.80
2023-01-17T05:01:23.893Z,44.58
2023-01-17T05:03:25.992Z,44.83
2023-01-17T05:05:28.026Z,42.33
2023-01-17T05:07:30.043Z,44.60
2023-01-17T05:09:32.124Z,42.70
2023-01-17T05:11:34.220Z,43.47
2023-01-17T05:13:36.263Z,42.33
2023-01-17T05:15:38.435Z,42.13
2023-01-17T05:17:40.523Z,46.60
2023-01-17T05:19:42.527Z,44.65
2023-01-17T05:21:44.562Z,39.75
2023-01-17T05:23:46.948Z,43.33
2023-01-17T05:25:48.956Z,37.92
2023-01-17T05:27:51.057Z,41.83
2023-01-17T05:29:53.177Z,38.67
2023-01-17T05:31:55.133Z,37.90
2023-01-17T05:33:57.204Z,40.00
2023-01-17T05:35:59.431Z,41.17
2023-01-17T05:38:01.533Z,35.05
2023-01-17T05:40:03.820Z,34.05
2023-01-17T05:42:05.917Z,38.03
2023-01-17T05:44:07.995Z,40.13
2023-01-17T05:46:10.037Z,35.45
2023-01-17T05:48:12.167Z,34.83
2023-01-17T05:50:34.472Z,34.97
2023-01-17T05:52:36.462Z,36.10
2023-01-17T05:54:38.519Z,35.85
2023-01-17T05:56:40.534Z,36.05
2023-01-17T05:58:42.567Z,37.38
2023-01-17T06:00:44.955Z,37.17
2023-01-17T06:02:47.131Z,35.33
2023-01-17T06:04:49.210Z,32.78
2023-01-17T06:06:51.352Z,33.97
2023-01-17T06:08:53.433Z,37.47
2023-01-17T06:10:55.578Z,40.13
2023-01-17T06:13:07.521Z,46.85
2023-01-17T06:15:10.109Z,51.65
2023-01-17T06:19:14.086Z,43.20
2023-01-17T06:21:16.132Z,46.38
2023-01-17T06:23:18.248Z,43.55
2023-01-17T06:25:20.378Z,40.47
2023-01-17T06:27:22.474Z,42.30
2023-01-17T06:29:24.601Z,37.58
2023-01-17T06:31:26.799Z,37.53
2023-01-17T06:33:28.864Z,38.17
2023-01-17T06:35:31.176Z,42.25
2023-01-17T06:37:33.365Z,37.88
2023-01-17T06:39:35.432Z,41.25
2023-01-17T06:41:37.431Z,39.05
2023-01-17T06:43:40.115Z,39.35
2023-01-17T06:47:44.271Z,41.88
2023-01-17T06:49:46.414Z,40.33
2023-01-17T06:51:48.428Z,39.47
2023-01-17T06:53:50.490Z,38.72
2023-01-17T06:55:56.138Z,44.88
2023-01-17T06:57:59.653Z,39.92
2023-01-17T07:00:02.179Z,38.38
2023-01-17T07:04:06.546Z,43.90
2023-01-17T07:06:09.642Z,39.72
2023-01-17T07:08:11.807Z,37.95
2023-01-17T07:10:14.414Z,42.65
2023-01-17T07:14:18.456Z,42.35
2023-01-17T07:16:20.678Z,37.50
2023-01-17T07:18:25.705Z,43.78
2023-01-17T07:20:27.873Z,41.90
2023-01-17T07:22:30.029Z,39.65
2023-01-17T07:24:33.044Z,43.13
2023-01-17T07:26:37.830Z,40.40
2023-01-17T07:28:39.897Z,39.15
2023-01-17T07:30:41.945Z,46.22
2023-01-17T07:32:44.054Z,43.67
2023-01-17T07:34:46.082Z,36.65
2023-01-17T07:36:49.782Z,45.83
2023-01-17T07:38:51.900Z,38.83
2023-01-17T07:40:58.199Z,43.33
2023-01-17T07:43:03.627Z,39.90
2023-01-17T07:45:06.812Z,36.83
2023-01-17T07:47:08.839Z,38.95
2023-01-17T07:49:10.939Z,39.60
2023-01-17T07:51:13.126Z,43.30
2023-01-17T07:53:15.280Z,38.05
2023-01-17T07:55:17.724Z,42.28
2023-01-17T07:57:19.944Z,45.75
2023-01-17T07:59:22.017Z,39.92
2023-01-17T08:01:24.291Z,40.35
2023-01-17T08:03:32.408Z,38.45
2023-01-17T08:05:34.606Z,38.40
2023-01-17T08:07:36.773Z,33.90
2023-01-17T08:09:38.803Z,37.95
2023-01-17T08:11:40.868Z,37.58
2023-01-17T08:13:43.138Z,40.20
2023-01-17T08:15:47.626Z,35.83
2023-01-17T08:17:53.369Z,34.45
2023-01-17T08:19:55.450Z,35.00
2023-01-17T08:21:57.560Z,34.55
2023-01-17T08:23:59.721Z,33.85
2023-01-17T08:26:01.953Z,32.40
2023-01-17T08:28:05.393Z,38.47
2023-01-17T08:30:08.591Z,33.67
2023-01-17T08:32:10.621Z,34.42
2023-01-17T08:34:14.246Z,36.50
2023-01-17T08:36:16.396Z,33.17
2023-01-17T08:38:18.734Z,35.22
2023-01-17T08:40:20.817Z,37.15
2023-01-17T08:42:22.844Z,30.30
2023-01-17T08:44:25.035Z,35.42
2023-01-17T08:46:27.105Z,38.22
2023-01-17T08:48:29.128Z,28.65
2023-01-17T08:50:31.171Z,35.90
2023-01-17T08:52:33.604Z,33.92
2023-01-17T08:54:35.654Z,36.10
2023-01-17T08:56:37.719Z,34.17
2023-01-17T08:58:41.488Z,32.38
2023-01-17T09:00:43.620Z,34.28
2023-01-17T09:02:45.675Z,32.70
2023-01-17T09:04:48.951Z,29.80
2023-01-17T09:06:50.962Z,29.63
2023-01-17T09:08:54.905Z,30.67
2023-01-17T09:10:56.947Z,26.20
2023-01-17T09:12:58.945Z,29.65
2023-01-17T09:15:02.439Z,31.67
2023-01-17T09:17:06.884Z,34.92
2023-01-17T09:19:09.533Z,33.17
2023-01-17T09:23:18.508Z,29.13
2023-01-17T09:25:20.535Z,28.73
2023-01-17T09:27:22.566Z,28.35
2023-01-17T09:29:24.722Z,27.38
2023-01-17T09:31:27.302Z,24.80
2023-01-17T09:33:29.373Z,25.77
2023-01-17T09:35:31.763Z,22.83
2023-01-17T09:37:33.840Z,26.02
2023-01-17T09:39:35.932Z,28.83
2023-01-17T09:42:11.033Z,24.23
2023-01-17T09:44:33.661Z,23.50
2023-01-17T09:46:45.102Z,27.15
2023-01-17T09:48:47.129Z,24.17
2023-01-17T09:50:54.893Z,23.55
2023-01-17T09:53:07.211Z,19.13
2023-01-17T09:55:14.790Z,20.75
2023-01-17T09:57:58.026Z,20.77
2023-01-17T10:00:34.154Z,22.52
2023-01-17T10:03:01.388Z,20.48
2023-01-17T10:05:34.519Z,18.50
2023-01-17T10:08:16.546Z,17.65
2023-01-17T10:10:42.442Z,21.27
2023-01-17T10:13:05.086Z,17.50
2023-01-17T10:15:57.030Z,16.60
2023-01-17T10:18:29.905Z,20.77
2023-01-17T10:20:53.989Z,23.58
2023-01-17T10:23:12.694Z,19.15
2023-01-17T10:25:52.585Z,19.38
2023-01-17T10:27:58.452Z,19.95
2023-01-17T10:30:03.029Z,16.15
2023-01-17T10:32:05.512Z,16.33
2023-01-17T10:34:19.773Z,18.33
2023-01-17T10:36:38.016Z,21.60
2023-01-17T10:38:42.024Z,16.52
2023-01-17T10:40:54.926Z,16.90
2023-01-17T10:45:18.696Z,13.73
2023-01-17T10:47:23.087Z,17.45
2023-01-17T10:49:26.347Z,16.33
2023-01-17T10:52:00.182Z,15.15
2023-01-17T10:54:36.082Z,15.55
2023-01-17T10:56:38.165Z,14.82
2023-01-17T10:58:40.257Z,17.55
2023-01-17T11:01:00.147Z,15.15
2023-01-17T11:03:02.328Z,19.08
2023-01-17T11:05:15.981Z,16.33
2023-01-17T11:07:24.100Z,15.73
2023-01-17T11:09:42.093Z,17.90
2023-01-17T11:11:50.410Z,15.63
2023-01-17T11:13:53.645Z,14.63
2023-01-17T11:16:07.835Z,15.38
2023-01-17T11:18:16.474Z,14.02
2023-01-17T11:20:38.853Z,13.20
2023-01-17T11:22:43.354Z,15.35
2023-01-17T11:24:53.338Z,16.98
2023-01-17T11:26:55.395Z,14.18
2023-01-17T11:29:35.894Z,11.80
2023-01-17T11:31:38.809Z,14.00
2023-01-17T11:33:49.204Z,11.43
2023-01-17T11:35:51.227Z,11.45
2023-01-17T11:38:20.161Z,10.57
2023-01-17T11:40:41.294Z,9.60
2023-01-17T11:42:43.437Z,10.65
2023-01-17T11:44:45.445Z,10.15
2023-01-17T11:46:47.605Z,8.85
2023-01-17T11:48:56.357Z,7.97
2023-01-17T11:50:59.393Z,9.52
2023-01-17T11:53:18.081Z,9.85
2023-01-17T11:55:23.054Z,7.88
2023-01-17T11:57:31.105Z,13.55
2023-01-17T11:59:40.344Z,13.98
2023-01-17T12:01:57.623Z,10.15
2023-01-17T12:04:41.049Z,7.88
2023-01-17T12:07:06.748Z,8.05
2023-01-17T12:09:23.049Z,7.10
2023-01-17T12:12:42.133Z,8.15
2023-01-17T12:14:57.023Z,9.07
2023-01-17T12:17:45.547Z,7.30
2023-01-17T12:20:01.326Z,7.90
2023-01-17T12:22:34.052Z,6.88
2023-01-17T12:24:39.552Z,8.45
2023-01-17T12:27:12.793Z,11.77
2023-01-17T12:29:45.587Z,11.25
2023-01-17T12:32:03.046Z,9.45
2023-01-17T12:34:30.086Z,11.10
2023-01-17T12:36:48.412Z,9.13
2023-01-17T12:38:50.588Z,9.85
2023-01-17T12:41:23.494Z,8.40
2023-01-17T12:43:42.177Z,6.80
2023-01-17T12:45:45.825Z,13.38
2023-01-17T12:47:52.023Z,8.48
2023-01-17T12:50:20.295Z,13.80
2023-01-17T12:52:46.196Z,7.80
2023-01-17T12:54:52.400Z,8.00
2023-01-17T12:57:14.913Z,9.93
2023-01-17T12:59:26.369Z,6.85
2023-01-17T13:01:43.094Z,9.05
2023-01-17T13:04:00.354Z,13.82
2023-01-17T13:06:02.837Z,9.60
2023-01-17T13:08:36.674Z,10.05
2023-01-17T13:10:51.173Z,11.57
2023-01-17T13:12:54.716Z,7.05
2023-01-17T13:14:56.779Z,7.80
2023-01-17T13:17:42.789Z,7.13
2023-01-17T13:19:54.848Z,9.68
2023-01-17T13:21:56.951Z,9.77
2023-01-17T13:24:02.231Z,9.48
2023-01-17T13:26:04.596Z,8.73
2023-01-17T13:28:56.986Z,9.93
2023-01-17T13:31:18.485Z,8.55
2023-01-17T13:33:27.060Z,6.60
2023-01-17T13:36:07.128Z,6.93
2023-01-17T13:38:39.742Z,6.95
2023-01-17T13:40:55.847Z,8.23
2023-01-17T13:43:02.709Z,7.15
2023-01-17T13:45:49.684Z,8.55
2023-01-17T13:47:52.965Z,8.68
2023-01-17T13:49:56.830Z,11.35
2023-01-17T13:52:10.994Z,14.63
2023-01-17T13:54:32.919Z,9.00
2023-01-17T13:56:35.337Z,10.68
2023-01-17T13:58:54.982Z,13.25
2023-01-17T14:00:57.112Z,11.63
2023-01-17T14:02:59.194Z,12.98
2023-01-17T14:05:23.422Z,15.38
2023-01-17T14:07:26.366Z,7.22
2023-01-17T14:09:37.838Z,10.10
2023-01-17T14:12:00.260Z,13.88
2023-01-17T14:14:39.600Z,21.38
2023-01-17T14:16:41.681Z,17.60
2023-01-17T14:18:43.853Z,16.77
2023-01-17T14:20:49.184Z,14.52
2023-01-17T14:22:51.953Z,13.68
2023-01-17T14:25:09.964Z,11.95
2023-01-17T14:27:16.789Z,12.43
2023-01-17T14:29:48.692Z,12.27
2023-01-17T14:31:51.524Z,9.18
2023-01-17T14:33:54.288Z,7.03
2023-01-17T14:38:29.512Z,9.45
2023-01-17T14:40:36.005Z,7.45
2023-01-17T14:42:38.026Z,8.10
2023-01-17T14:44:40.047Z,6.72
2023-01-17T14:46:42.056Z,7.50
2023-01-17T14:48:44.252Z,12.73
2023-01-17T14:50:48.650Z,8.68
2023-01-17T14:53:15.713Z,14.77
2023-01-17T14:55:19.457Z,9.32
2023-01-17T14:57:29.279Z,8.50
2023-01-17T14:59:31.365Z,8.38
2023-01-17T15:01:33.696Z,10.13
2023-01-17T15:05:53.347Z,7.20
2023-01-17T15:07:56.729Z,12.07
2023-01-17T15:09:58.754Z,11.57
2023-01-17T15:12:00.871Z,11.13
2023-01-17T15:14:05.947Z,11.07
2023-01-17T15:16:17.827Z,9.43
2023-01-17T15:18:26.869Z,9.15
2023-01-17T15:20:29.005Z,12.68
2023-01-17T15:22:31.041Z,11.43
2023-01-17T15:24:34.624Z,9.25
2023-01-17T15:26:44.735Z,12.73
2023-01-17T15:28:47.102Z,11.57
2023-01-17T15:31:15.488Z,14.35
2023-01-17T15:33:21.183Z,12.93
2023-01-17T15:35:23.683Z,15.52
2023-01-17T15:37:39.895Z,23.95
2023-01-17T15:39:42.005Z,17.30
2023-01-17T15:41:44.063Z,12.82
2023-01-17T15:43:46.159Z,13.30
2023-01-17T15:45:58.637Z,17.88
2023-01-17T15:48:40.631Z,16.15
2023-01-17T15:50:42.702Z,15.65
2023-01-17T15:52:52.038Z,15.25
2023-01-17T15:55:12.556Z,13.07
2023-01-17T15:57:24.607Z,11.95
2023-01-17T16:00:06.143Z,13.00
2023-01-17T16:02:25.973Z,13.70
2023-01-17T16:04:34.899Z,13.90
2023-01-17T16:06:45.782Z,10.90
2023-01-17T16:08:52.579Z,11.40
2023-01-17T16:10:58.615Z,11.55
2023-01-17T16:13:00.708Z,15.52
2023-01-17T16:15:12.519Z,15.23
2023-01-17T16:17:16.712Z,15.52
2023-01-17T16:19:18.902Z,13.57
2023-01-17T16:21:27.345Z,13.65
2023-01-17T16:23:29.412Z,16.45
2023-01-17T16:25:37.457Z,18.13
2023-01-17T16:27:41.515Z,17.27
2023-01-17T16:29:43.556Z,12.57
2023-01-17T16:31:45.590Z,14.90
2023-01-17T16:33:49.742Z,18.17
2023-01-17T16:35:53.908Z,15.30
2023-01-17T16:38:02.234Z,23.88
2023-01-17T16:40:04.885Z,27.00
2023-01-17T16:42:11.353Z,25.23
2023-01-17T16:44:13.577Z,24.67
2023-01-17T16:46:15.728Z,20.83
2023-01-17T16:48:19.349Z,18.63
2023-01-17T16:50:24.483Z,14.18
2023-01-17T16:52:26.622Z,12.02
2023-01-17T16:54:28.646Z,9.40
2023-01-17T16:56:30.697Z,13.48
2023-01-17T16:58:32.787Z,12.43
2023-01-17T17:00:34.806Z,14.63
2023-01-17T17:02:38.668Z,16.70
2023-01-17T17:04:41.948Z,10.20
2023-01-17T17:06:43.964Z,15.88
2023-01-17T17:08:46.051Z,12.75
2023-01-17T17:10:48.114Z,12.80
2023-01-17T17:12:50.201Z,11.88
2023-01-17T17:14:52.226Z,11.70
2023-01-17T17:16:54.380Z,9.20
2023-01-17T17:19:04.762Z,10.82
2023-01-17T17:21:06.912Z,7.72
2023-01-17T17:23:10.191Z,7.65
2023-01-17T17:25:12.429Z,10.10
2023-01-17T17:27:14.461Z,7.90
2023-01-17T17:29:16.603Z,8.13
2023-01-17T17:31:18.724Z,8.50
2023-01-17T17:37:05.555Z,17.55
2023-01-17T17:39:09.367Z,11.63
2023-01-17T17:41:11.465Z,13.00
2023-01-17T17:43:13.986Z,10.70
2023-01-17T17:45:16.305Z,11.57
2023-01-17T17:47:18.364Z,10.02
2023-01-17T17:49:22.762Z,11.10
2023-01-17T17:51:35.195Z,10.05
2023-01-17T17:53:37.315Z,12.43
2023-01-17T17:55:41.065Z,14.18
2023-01-17T17:57:43.219Z,13.20
2023-01-17T17:59:45.381Z,18.52
2023-01-17T18:01:48.087Z,11.65
2023-01-17T18:05:53.460Z,17.67
2023-01-17T18:07:56.085Z,13.10
2023-01-17T18:12:00.579Z,11.18
2023-01-17T18:14:03.872Z,10.25
2023-01-17T18:16:14.753Z,8.20
2023-01-17T18:18:17.312Z,11.18
2023-01-17T18:20:20.255Z,12.82
2023-01-17T18:24:25.113Z,9.93
2023-01-17T18:26:32.704Z,8.93
2023-01-17T18:28:34.860Z,12.93
2023-01-17T18:30:38.576Z,11.20
2023-01-17T18:32:41.946Z,14.85
2023-01-17T18:34:45.095Z,11.27
2023-01-17T18:36:47.666Z,16.33
2023-01-17T18:40:51.903Z,28.92
2023-01-17T18:42:54.403Z,31.02
2023-01-17T18:44:56.597Z,25.65
2023-01-17T18:47:02.095Z,26.30
2023-01-17T18:49:04.771Z,24.88
2023-01-17T18:53:11.531Z,17.30
2023-01-17T18:55:13.665Z,22.77
2023-01-17T18:57:15.852Z,16.55
2023-01-17T18:59:23.602Z,21.20
2023-01-17T19:01:28.704Z,18.33
2023-01-17T19:03:31.610Z,18.33
2023-01-17T19:05:36.241Z,17.50
2023-01-17T19:07:38.233Z,19.50
2023-01-17T19:09:40.359Z,20.92
2023-01-17T19:11:44.580Z,19.23
2023-01-17T19:13:46.704Z,19.77
2023-01-17T19:15:48.756Z,16.20
2023-01-17T19:17:50.751Z,18.13
2023-01-17T19:19:52.798Z,24.77
2023-01-17T19:21:54.928Z,23.45
2023-01-17T19:23:57.702Z,23.50
2023-01-17T19:25:59.737Z,22.35
2023-01-17T19:28:01.894Z,20.67
2023-01-17T19:30:04.420Z,21.60
2023-01-17T19:32:07.463Z,20.50
2023-01-17T19:34:09.970Z,25.13
2023-01-17T19:36:17.060Z,23.13
2023-01-17T19:38:19.077Z,32.38
2023-01-17T19:40:21.264Z,24.88
2023-01-17T19:42:23.385Z,28.02
2023-01-17T19:44:25.506Z,23.98
2023-01-17T19:46:28.553Z,22.73
2023-01-17T19:48:30.799Z,17.33
2023-01-17T19:50:33.125Z,17.58
2023-01-17T19:52:35.851Z,16.25
2023-01-17T19:56:40.017Z,25.55
2023-01-17T19:58:42.442Z,23.90
2023-01-17T20:00:46.793Z,18.95
2023-01-17T20:02:49.037Z,22.33
2023-01-17T20:04:51.258Z,19.08
2023-01-17T20:06:53.613Z,24.88
2023-01-17T20:08:55.713Z,18.60
2023-01-17T20:11:05.483Z,21.55
2023-01-17T20:13:07.558Z,23.15
2023-01-17T20:15:10.007Z,21.73
2023-01-17T20:17:12.304Z,31.85
2023-01-17T20:19:14.384Z,21.63
2023-01-17T20:21:24.973Z,27.05
2023-01-17T20:23:27.054Z,28.85
2023-01-17T20:25:33.478Z,35.83
2023-01-17T20:27:36.648Z,26.25
2023-01-17T20:29:40.759Z,25.83
2023-01-17T20:31:43.303Z,22.73
2023-01-17T20:33:47.402Z,27.13
2023-01-17T20:35:55.573Z,29.73
2023-01-17T20:38:10.480Z,25.63
2023-01-17T20:40:12.963Z,28.20
2023-01-17T20:42:15.102Z,27.20
2023-01-17T20:44:19.770Z,28.77
2023-01-17T20:46:24.321Z,32.67
2023-01-17T20:48:26.611Z,30.27
2023-01-17T20:54:26.976Z,24.00
2023-01-17T20:56:34.748Z,25.80
2023-01-17T20:58:38.778Z,23.35
2023-01-17T21:00:41.335Z,28.65
2023-01-17T21:02:43.738Z,24.83
2023-01-17T21:04:46.075Z,26.13
2023-01-17T21:06:51.667Z,23.35
2023-01-17T21:08:53.776Z,29.13
2023-01-17T21:10:55.932Z,28.17
2023-01-17T21:13:00.922Z,26.55
2023-01-17T21:15:03.043Z,23.73
2023-01-17T21:17:05.156Z,24.90
2023-01-17T21:19:12.022Z,30.65
2023-01-17T21:21:22.020Z,32.75
2023-01-17T21:23:29.333Z,26.65
2023-01-17T21:25:32.790Z,24.85
2023-01-17T21:27:36.667Z,25.83
2023-01-17T21:29:39.038Z,25.38
2023-01-17T21:31:42.910Z,25.45
2023-01-17T21:33:45.353Z,25.98
2023-01-17T21:35:47.743Z,28.77
2023-01-17T21:37:50.395Z,37.70
2023-01-17T21:42:05.517Z,46.58
2023-01-17T21:44:13.419Z,49.20
2023-01-17T21:59:00.993Z,72.18
2023-01-17T22:03:37.245Z,46.50
2023-01-17T22:06:05.044Z,40.20
2023-01-17T22:11:37.730Z,33.70
2023-01-17T23:02:50.304Z,35.03
2023-01-17T23:12:56.038Z,38.30
2023-01-17T23:18:18.137Z,49.03
2023-01-17T23:22:44.396Z,65.95
2023-01-17T23:25:28.038Z,58.13
2023-01-17T23:28:21.595Z,51.13
